High wind

Not for real navigation. The accuracy of this data is not assured See disclaimer for more information



ICAO NAME COUNTRY WIND Kt GUST Kt VIS m TEMP/DEW C BARO METAR
CWYM Cape Mercy Canada 47 0 9999 -27/0 29.50 CWYM 251300Z AUTO 28047KT M27/ A2950 RMK SLP081
ENQA 44 0 9999 6/5 29.15 ENQA 251250Z AUTO 17044KT //// OVC006/// 06/05 Q0987 W04/S7
ENSL 42 0 9999 8/6 29.23 ENSL 251250Z 23042KT 9999 -RA BKN013 08/06 Q0990 W06/S5
ENQC 41 0 1800 6/5 29.12 ENQC 251250Z AUTO 16041KT 1800NDV RA OVC007/// 06/05 Q0986 W///S7
CWUP Cape Hooper, N. W. T. Canada 41 46 9999 -27/0 29.44 CWUP 251300Z AUTO 21041G46KT M27/ A2944 RMK PRESRR SLP028

Show more